Salfords, United Kingdom
Current Conditions -  °F | °C
As of 10:20 PM on Sunday 23 Nov 2014 (Local Time) from EGKK Reporting Station
Clear Clear  
Wind Chill: 40°   Ceiling: Unl
Heat Index: 43°   Visibility: 5mi
Dew Point: 41°   Wind: 5mph
Humidity: 93%   Direction: 330°NNW
Pressure: 30.15"   Gusts: NA
Location:  51.2°N, 0.17°W
Report Text: EGKK 232220Z 33004KT 8000 NSC 06/05 Q1021
Loading
Personal Weather Stations






























Interactive Weather Map New forecast layout! Learn more

10-Day Weather Forecast

Advertisements
Track Severe Weather on mobile